Time;durP1;ratioP1;P1;durP2;ratioP2;P2;SDS_P1;SDS_P2;PMS_P1;PMS_P2;Temp;Humidity;BMP_temperature;BMP_pressure;BME280_temperature;BME280_humidity;BME280_pressure;Samples;Min_cycle;Max_cycle;Signal;HPM_P1;HPM_P2
2022/06/16 00:01:07;;;;;;;6.50;4.28;;;;;;;15.89;100.00;146731.28;5107889;28;20476;-81
2022/06/16 00:03:32;;;;;;;6.82;4.43;;;;;;;15.83;100.00;146715.94;5096078;28;20451;-81
2022/06/16 00:05:58;;;;;;;6.45;4.25;;;;;;;15.81;100.00;146710.84;5101717;28;20028;-81
2022/06/16 00:08:23;;;;;;;7.43;4.65;;;;;;;15.80;100.00;146708.34;5104685;28;20033;-81
2022/06/16 00:13:40;;;;;;;7.05;4.85;;;;;;;15.73;100.00;146691.66;5095676;28;20387;-81
2022/06/16 00:16:07;;;;;;;7.85;4.38;;;;;;;15.67;100.00;146676.31;5112556;28;20030;-80
2022/06/16 00:18:33;;;;;;;6.60;4.10;;;;;;;15.59;100.00;146655.91;5110698;28;20031;-81
2022/06/16 00:20:58;;;;;;;6.55;4.70;;;;;;;15.59;100.00;146655.91;5108659;28;20073;-82
2022/06/16 00:23:25;;;;;;;9.32;4.45;;;;;;;15.55;100.00;146645.69;5096769;28;20044;-83
2022/06/16 00:25:50;;;;;;;5.55;4.50;;;;;;;15.54;100.00;146644.41;5113945;28;20089;-83
2022/06/16 00:28:16;;;;;;;7.18;4.43;;;;;;;15.48;100.00;146629.09;5097884;28;20380;-79
2022/06/16 00:30:41;;;;;;;6.72;4.55;;;;;;;15.39;100.00;146607.38;5105188;28;20425;-82
2022/06/16 00:33:07;;;;;;;6.57;4.43;;;;;;;15.40;100.00;146609.94;5107448;28;20035;-81
2022/06/16 00:35:33;;;;;;;7.15;4.55;;;;;;;15.38;100.00;146604.84;5100576;28;20460;-82
2022/06/16 00:37:58;;;;;;;6.57;4.60;;;;;;;15.33;100.00;146592.06;5110714;28;20030;-83
2022/06/16 00:40:24;;;;;;;8.27;4.72;;;;;;;15.25;100.00;146571.66;5093359;28;20076;-80
2022/06/16 00:42:50;;;;;;;9.30;5.10;;;;;;;15.14;100.00;146544.84;5098555;28;20119;-79
2022/06/16 00:45:42;;;;;;;7.35;5.35;;;;;;;15.13;100.00;146542.28;5110353;28;20088;-82
2022/06/16 00:48:09;;;;;;;8.05;5.00;;;;;;;15.11;100.00;146537.19;5109719;28;20029;-78
2022/06/16 00:50:35;;;;;;;10.52;5.20;;;;;;;15.04;100.00;146520.63;5107819;28;20114;-76
2022/06/16 00:53:02;;;;;;;6.80;4.47;;;;;;;14.94;100.00;146495.06;5090628;28;20118;-77
2022/06/16 00:55:28;;;;;;;7.93;4.95;;;;;;;14.97;100.00;146501.47;5106332;28;20028;-77
2022/06/16 00:57:54;;;;;;;6.65;4.97;;;;;;;14.98;100.00;146504.03;5091106;28;20449;-77
2022/06/16 01:03:08;;;;;;;7.50;4.88;;;;;;;14.90;100.00;146486.16;5092453;28;20097;-78
2022/06/16 01:05:34;;;;;;;6.78;4.97;;;;;;;14.83;100.00;146467.00;5106310;28;20023;-73
2022/06/16 01:07:59;;;;;;;8.27;4.93;;;;;;;14.81;100.00;146463.19;5108812;28;20047;-74
2022/06/16 01:10:29;;;;;;;7.85;5.10;;;;;;;14.74;100.00;146444.03;5094353;28;20036;-73
2022/06/16 01:13:46;;;;;;;9.15;5.10;;;;;;;14.78;100.00;146430.16;5103857;28;20032;-74
2022/06/16 01:15:53;;;;;;;9.07;5.43;;;;;;;14.66;100.00;139231.69;5093344;28;20365;-78
2022/06/16 01:19:12;;;;;;;9.25;5.35;;;;;;;14.66;100.00;129654.94;5107527;28;20042;-74
2022/06/16 01:21:54;;;;;;;9.80;4.93;;;;;;;14.62;100.00;132379.63;5039877;28;20532;-76
2022/06/16 01:24:51;;;;;;;9.00;5.20;;;;;;;14.62;100.00;125888.78;5086187;28;20142;-75
2022/06/16 01:27:41;;;;;;;8.75;5.45;;;;;;;14.65;100.00;114989.09;5104849;28;20028;-75
2022/06/16 01:30:22;;;;;;;7.75;4.95;;;;;;;14.59;100.00;114976.91;5098885;28;20127;-77
2022/06/16 01:33:11;;;;;;;9.93;5.43;;;;;;;14.53;100.00;112924.25;5111964;28;20031;-74
2022/06/16 01:35:52;;;;;;;7.70;5.25;;;;;;;14.53;100.00;111222.81;5091293;28;20028;-74
2022/06/16 01:38:41;;;;;;;7.45;5.15;;;;;;;14.44;100.00;100002.41;5106862;28;20035;-75
2022/06/16 01:41:16;;;;;;;7.88;5.57;;;;;;;14.34;100.00;79359.53;5098901;28;20043;-76
2022/06/16 01:43:49;;;;;;;10.43;5.68;;;;;;;14.31;100.00;69923.75;5087228;28;20027;-76
2022/06/16 01:46:22;;;;;;;8.15;5.35;;;;;;;14.31;100.00;60515.06;5109401;28;20063;-76
2022/06/16 01:48:53;;;;;;;7.82;5.63;;;;;;;14.27;100.00;53133.59;5112603;28;20067;-75
2022/06/16 01:51:48;;;;;;;7.53;5.40;;;;;;;14.30;100.00;47779.88;5110856;28;20019;-78
2022/06/16 01:54:40;;;;;;;8.98;5.55;;;;;;;14.20;100.00;41420.19;5104052;28;20034;-81
2022/06/16 01:57:10;;;;;;;9.32;6.00;;;;;;;14.08;100.00;32738.84;5094704;28;20487;-81
2022/06/16 01:59:54;;;;;;;8.52;5.85;;;;;;;13.97;100.00;26740.13;5112808;28;20095;-81
2022/06/16 02:02:23;;;;;;;9.80;6.00;;;;;;;13.91;100.00;22083.78;5091742;28;20028;-82
2022/06/16 02:05:04;;;;;;;9.07;5.60;;;;;;;13.77;100.00;16435.38;5112550;28;20031;-80
2022/06/16 02:07:48;;;;;;;10.88;6.10;;;;;;;13.82;100.00;10803.38;5094083;28;20038;-77
2022/06/16 02:10:20;;;;;;;10.80;6.38;;;;;;;13.78;100.00;8154.06;5097375;27;20444;-82
2022/06/16 02:12:55;;;;;;;10.13;5.90;;;;;;;13.74;100.00;5506.63;5099688;28;20020;-75
2022/06/16 02:15:57;;;;;;;9.18;6.18;;;;;;;13.75;100.00;219.72;5073531;28;20025;-82
2022/06/16 02:18:38;;;;;;;10.15;5.78;;;;;;;13.72;100.00;-3081.41;5080544;28;20459;-81
2022/06/16 02:21:37;;;;;;;11.23;6.38;;;;;;;13.71;100.00;-3411.38;5114441;28;20028;-83
2022/06/16 02:24:07;;;;;;;11.27;6.10;;;;;;;13.71;100.00;-2091.56;5068173;28;20046;-81
2022/06/16 02:26:33;;;;;;;7.78;5.70;;;;;;;13.64;100.00;1208.97;5111283;28;20123;-84
2022/06/16 02:29:01;;;;;;;10.75;5.97;;;;;;;13.64;100.00;2860.66;5113271;28;20063;-81
2022/06/16 02:32:05;;;;;;;10.18;6.28;;;;;;;13.60;100.00;4512.13;5111133;28;20498;-80
2022/06/16 02:35:00;;;;;;;9.93;5.63;;;;;;;13.61;100.00;6826.63;5092816;28;20049;-81
2022/06/16 02:37:31;;;;;;;10.23;6.38;;;;;;;13.53;100.00;7155.44;5101016;28;20127;-78
2022/06/16 02:40:05;;;;;;;13.43;6.63;;;;;;;13.49;100.00;8146.66;5112024;28;20024;-80
2022/06/16 02:42:31;;;;;;;8.82;6.22;;;;;;;13.42;100.00;4508.78;5110787;28;20038;-79
2022/06/16 02:45:01;;;;;;;9.05;6.35;;;;;;;13.39;100.00;1865.78;5113043;28;20372;-79
2022/06/16 02:47:57;;;;;;;9.30;6.60;;;;;;;13.34;100.00;544.66;5110843;28;20051;-81
2022/06/16 02:50:45;;;;;;;9.57;6.50;;;;;;;13.29;100.00;-1435.50;5072222;28;20090;-80
2022/06/16 02:53:46;;;;;;;9.32;5.78;;;;;;;13.24;100.00;-776.31;5086639;28;20032;-76
2022/06/16 02:56:47;;;;;;;7.68;5.55;;;;;;;13.27;100.00;543.81;5112240;28;20034;-78
2022/06/16 02:59:17;;;;;;;7.85;5.32;;;;;;;13.32;100.00;4506.72;5112038;28;20063;-75
2022/06/16 03:01:43;;;;;;;9.10;5.30;;;;;;;13.31;100.00;10126.88;5107040;28;20066;-75
2022/06/16 03:04:17;;;;;;;8.48;5.53;;;;;;;13.31;100.00;13436.53;5103543;28;20063;-76
2022/06/16 03:06:44;;;;;;;7.70;5.47;;;;;;;13.32;100.00;15424.16;5098011;28;20147;-75
2022/06/16 03:09:10;;;;;;;10.13;5.28;;;;;;;13.36;100.00;16419.75;5090836;28;20027;-78
2022/06/16 03:11:37;;;;;;;8.82;5.50;;;;;;;13.34;100.00;17744.75;5087892;28;20028;-77
2022/06/16 03:14:03;;;;;;;7.75;5.80;;;;;;;13.37;100.00;16088.75;5094808;28;20096;-76
2022/06/16 03:16:29;;;;;;;11.55;5.60;;;;;;;13.29;100.00;12111.78;5117692;27;20483;-77
2022/06/16 03:18:55;;;;;;;9.32;5.78;;;;;;;13.20;100.00;11116.34;5110640;28;20031;-78
2022/06/16 03:21:20;;;;;;;10.23;6.43;;;;;;;13.17;100.00;10784.59;5107584;28;20057;-77
2022/06/16 03:23:47;;;;;;;11.07;6.10;;;;;;;13.17;100.00;11115.28;5095409;28;20119;-77
2022/06/16 03:26:13;;;;;;;10.88;5.90;;;;;;;13.21;100.00;17076.78;5112035;28;20418;-79
2022/06/16 03:28:41;;;;;;;8.07;5.50;;;;;;;13.26;100.00;27366.31;5101011;28;20024;-77
2022/06/16 03:31:07;;;;;;;8.82;5.05;;;;;;;13.36;100.00;45358.84;5109200;28;20028;-78
2022/06/16 03:33:32;;;;;;;9.63;5.25;;;;;;;13.44;100.00;52719.06;5092042;28;20058;-77
2022/06/16 03:35:58;;;;;;;8.60;4.78;;;;;;;13.40;100.00;59410.97;5105100;28;20031;-78
2022/06/16 03:38:42;;;;;;;7.60;4.60;;;;;;;13.50;100.00;78906.38;5090026;28;20036;-77
2022/06/16 03:41:08;;;;;;;8.05;4.55;;;;;;;13.55;100.00;98494.28;5082524;28;20063;-76
2022/06/16 03:43:44;;;;;;;8.57;4.63;;;;;;;13.60;100.00;115462.47;5099030;28;20027;-76
2022/06/16 03:46:11;;;;;;;9.43;4.90;;;;;;;13.67;100.00;133871.19;5111713;28;20028;-77
2022/06/16 03:48:37;;;;;;;7.57;4.65;;;;;;;13.75;100.00;146200.41;5106505;28;20119;-75
2022/06/16 03:51:05;;;;;;;8.00;4.60;;;;;;;13.80;100.00;146211.88;5110261;28;20031;-74
2022/06/16 03:53:31;;;;;;;9.32;5.10;;;;;;;13.90;100.00;146237.34;5092629;28;20032;-75
2022/06/16 03:55:57;;;;;;;8.18;5.00;;;;;;;13.92;100.00;146242.47;5106851;28;20038;-76
2022/06/16 03:58:22;;;;;;;9.02;5.10;;;;;;;13.90;100.00;146236.09;5110225;28;20039;-76
2022/06/16 04:00:48;;;;;;;8.40;4.72;;;;;;;13.94;100.00;146247.56;5099014;28;20031;-74
2022/06/16 04:05:57;;;;;;;7.30;4.53;;;;;;;14.27;100.00;146329.19;5105318;28;20079;-77
2022/06/16 04:08:22;;;;;;;7.32;4.78;;;;;;;14.93;100.00;146491.25;5090214;28;20055;-78
2022/06/16 04:10:48;;;;;;;7.55;4.82;;;;;;;15.53;100.00;146640.59;5101709;28;20057;-80
2022/06/16 04:13:15;;;;;;;8.23;4.60;;;;;;;16.06;100.00;146772.16;5089132;28;20039;-80
2022/06/16 04:15:41;;;;;;;8.85;4.57;;;;;;;17.16;100.00;147045.63;5092181;28;20139;-81
2022/06/16 04:18:07;;;;;;;7.30;4.30;;;;;;;18.08;100.00;147274.53;5111291;28;20236;-80
2022/06/16 04:20:33;;;;;;;7.95;4.38;;;;;;;19.34;100.00;147588.06;5109954;28;20119;-81
2022/06/16 04:22:58;;;;;;;5.40;4.30;;;;;;;18.83;100.00;147461.28;5109009;28;20048;-74
2022/06/16 04:25:32;;;;;;;8.32;4.50;;;;;;;19.55;100.00;147640.56;5100975;28;20046;-76
2022/06/16 04:27:59;;;;;;;8.32;4.80;;;;;;;19.23;100.00;147559.91;5103544;28;20028;-77
2022/06/16 04:30:25;;;;;;;6.32;4.32;;;;;;;18.76;100.00;147444.69;5095783;28;20028;-77
2022/06/16 04:32:50;;;;;;;5.85;4.20;;;;;;;18.72;100.00;147433.16;5108232;28;20026;-77
2022/06/16 04:35:16;;;;;;;8.02;4.43;;;;;;;19.75;100.00;147690.53;5103599;28;20029;-79
2022/06/16 04:37:41;;;;;;;6.60;4.30;;;;;;;20.50;100.00;147876.28;5088956;28;20460;-79
2022/06/16 04:40:09;;;;;;;6.03;3.90;;;;;;;21.34;100.00;148086.50;5106437;28;20031;-79
2022/06/16 04:42:35;;;;;;;6.20;3.80;;;;;;;21.94;100.00;148236.56;5108057;28;20042;-77
2022/06/16 04:45:00;;;;;;;7.07;3.90;;;;;;;22.15;100.00;148289.13;5094652;28;20114;-79
2022/06/16 04:47:26;;;;;;;6.10;3.55;;;;;;;23.10;100.00;148526.63;5105146;28;20028;-78
2022/06/16 04:49:51;;;;;;;5.18;3.45;;;;;;;23.00;100.00;148500.88;5107575;28;20031;-79
2022/06/16 04:52:18;;;;;;;6.07;3.38;;;;;;;24.12;100.00;148780.84;5107793;28;20032;-79
2022/06/16 04:54:45;;;;;;;6.63;3.45;;;;;;;24.55;100.00;148888.75;5107929;28;20051;-78
2022/06/16 04:57:10;;;;;;;5.80;3.58;;;;;;;24.03;100.00;148757.72;5106121;28;20031;-81
2022/06/16 04:59:36;;;;;;;6.68;3.50;;;;;;;24.30;100.00;148825.81;5098149;28;20031;-73
2022/06/16 05:02:02;;;;;;;6.57;3.55;;;;;;;24.63;100.00;148908.06;5103649;28;20036;-78
2022/06/16 05:04:27;;;;;;;7.18;3.65;;;;;;;24.44;100.00;148860.50;5097949;28;20042;-74
2022/06/16 05:06:54;;;;;;;8.02;3.60;;;;;;;23.98;100.00;148744.91;5112133;28;20084;-80
2022/06/16 05:09:19;;;;;;;6.07;3.38;;;;;;;23.63;100.00;148658.81;5100157;28;20679;-77
2022/06/16 05:11:45;;;;;;;6.40;3.45;;;;;;;23.63;100.00;148658.81;5111187;28;20061;-82
2022/06/16 05:14:10;;;;;;;5.55;3.00;;;;;;;23.01;100.00;148502.16;5110834;28;20059;-81
2022/06/16 05:16:35;;;;;;;4.82;3.10;;;;;;;22.61;100.00;148403.38;5112012;28;20048;-75
2022/06/16 05:19:01;;;;;;;5.25;3.03;;;;;;;21.82;100.00;148205.78;5111698;28;20679;-76
2022/06/16 05:21:26;;;;;;;6.63;3.20;;;;;;;20.23;100.00;147810.94;5111646;28;20538;-75
2022/06/16 05:23:51;;;;;;;4.90;3.17;;;;;;;19.84;100.00;147713.63;5111879;28;20488;-76
2022/06/16 05:26:17;;;;;;;4.95;3.08;;;;;;;19.18;100.00;147548.41;5112457;28;20399;-76
2022/06/16 05:28:43;;;;;;;5.82;3.10;;;;;;;18.49;100.00;147376.88;5110531;28;20118;-75
2022/06/16 05:31:08;;;;;;;7.72;3.20;;;;;;;17.86;100.00;147220.75;5101767;28;20380;-76
2022/06/16 05:33:34;;;;;;;4.80;2.85;;;;;;;17.80;100.00;147204.16;5111575;28;20023;-76
2022/06/16 05:36:08;;;;;;;3.97;2.50;;;;;;;17.88;100.00;147225.97;5097406;28;20031;-74
2022/06/16 05:38:34;;;;;;;4.38;2.40;;;;;;;17.85;100.00;147218.25;5100258;28;20043;-75
2022/06/16 05:41:10;;;;;;;4.50;2.45;;;;;;;18.46;100.00;147370.47;5108406;28;20031;-75
2022/06/16 05:43:36;;;;;;;4.47;2.38;;;;;;;19.05;100.00;147516.41;5096537;28;20031;-75
2022/06/16 05:46:04;;;;;;;5.05;2.38;;;;;;;19.16;100.00;147544.56;5104963;28;20026;-76
2022/06/16 05:48:33;;;;;;;5.05;2.10;;;;;;;18.64;100.00;147415.28;5099902;28;20024;-78
2022/06/16 05:51:08;;;;;;;5.85;2.40;;;;;;;18.33;100.00;147335.94;5111223;28;20031;-78
2022/06/16 05:53:35;;;;;;;5.30;1.92;;;;;;;18.20;100.00;147305.22;5112739;28;20050;-77
2022/06/16 05:56:01;;;;;;;5.40;2.25;;;;;;;17.93;100.00;147238.72;5098531;28;20044;-77
2022/06/16 05:58:26;;;;;;;5.25;2.53;;;;;;;17.84;100.00;147214.41;5093544;28;20237;-78
2022/06/16 06:00:52;;;;;;;4.85;2.22;;;;;;;17.64;100.00;147165.78;5093420;28;20476;-77
2022/06/16 06:03:18;;;;;;;6.13;2.40;;;;;;;17.46;100.00;147121.03;5092938;28;20039;-75
2022/06/16 06:05:44;;;;;;;5.28;2.53;;;;;;;17.54;100.00;147141.50;5092730;28;20031;-76
2022/06/16 06:16:43;;;;;;;3.38;1.90;;;;;;;17.45;100.00;147117.19;5094480;28;20561;-79
2022/06/16 06:19:23;;;;;;;3.75;2.00;;;;;;;17.92;100.00;147234.91;5092822;28;20878;-76
2022/06/16 06:22:03;;;;;;;4.18;2.33;;;;;;;18.18;100.00;147300.13;5092460;28;20769;-78
2022/06/16 06:24:45;;;;;;;5.85;2.40;;;;;;;18.21;100.00;147307.81;5093585;28;20055;-79
2022/06/16 06:27:23;;;;;;;5.78;1.83;;;;;;;17.78;100.00;147200.31;5093012;28;20028;-78
2022/06/16 06:29:50;;;;;;;4.43;2.00;;;;;;;17.73;100.00;147187.53;5110288;28;20024;-78
2022/06/16 06:32:18;;;;;;;3.67;1.95;;;;;;;17.64;100.00;147165.78;5092821;28;20064;-80
2022/06/16 06:34:46;;;;;;;6.57;2.22;;;;;;;17.96;100.00;147245.16;5084182;28;20032;-79
2022/06/16 06:37:14;;;;;;;4.18;2.17;;;;;;;17.97;100.00;147246.41;5073833;28;20028;-79
2022/06/16 06:39:42;;;;;;;4.18;2.03;;;;;;;17.91;100.00;147233.63;5082852;28;20508;-75
2022/06/16 06:42:08;;;;;;;4.75;2.20;;;;;;;18.57;100.00;147396.09;5093073;28;20020;-77
2022/06/16 06:44:34;;;;;;;5.68;2.20;;;;;;;18.74;100.00;147438.31;5092776;28;20109;-78
2022/06/16 06:47:00;;;;;;;4.65;2.33;;;;;;;19.12;100.00;147533.03;5092115;28;20031;-80
2022/06/16 06:49:26;;;;;;;4.03;2.20;;;;;;;19.07;100.00;147521.53;5093084;28;20073;-80
2022/06/16 06:51:51;;;;;;;4.47;2.10;;;;;;;18.96;100.00;147494.63;5091259;28;20141;-79
2022/06/16 06:54:18;;;;;;;5.90;2.40;;;;;;;19.49;100.00;147625.22;5092737;28;20028;-77
2022/06/16 06:56:45;;;;;;;6.03;2.53;;;;;;;19.47;100.00;147620.09;5092693;28;20426;-79
2022/06/16 06:59:18;;;;;;;3.90;2.30;;;;;;;19.51;100.00;147630.31;5092707;28;20106;-77
2022/06/16 07:01:43;;;;;;;7.13;2.70;;;;;;;19.19;100.00;147552.25;5092918;28;20028;-75
2022/06/16 07:04:08;;;;;;;4.55;2.65;;;;;;;19.29;100.00;147576.56;5099271;28;20024;-76
2022/06/16 07:06:34;;;;;;;7.15;2.67;;;;;;;19.64;100.00;147662.31;5097307;28;20020;-79
2022/06/16 07:08:59;;;;;;;5.88;2.60;;;;;;;20.99;100.00;147999.38;5096322;28;20035;-77
2022/06/16 07:11:25;;;;;;;4.47;2.47;;;;;;;22.43;100.00;148358.44;5097351;28;20028;-81
2022/06/16 07:13:51;;;;;;;5.57;2.75;;;;;;;23.15;100.00;148536.84;5098458;28;20031;-77
2022/06/16 07:16:17;;;;;;;4.68;2.85;;;;;;;23.43;100.00;148608.75;5097436;28;20111;-78
2022/06/16 07:18:45;;;;;;;4.55;2.70;;;;;;;23.09;100.00;148522.78;5109619;28;20031;-80
2022/06/16 07:21:11;;;;;;;5.20;2.67;;;;;;;22.72;100.00;148431.59;5118737;28;20035;-79
2022/06/16 07:23:36;;;;;;;4.78;3.05;;;;;;;23.34;100.00;148584.34;5103601;28;20075;-80
2022/06/16 07:26:02;;;;;;;3.38;2.40;;;;;;;25.01;100.00;149003.13;5093997;28;20505;-81
2022/06/16 07:28:28;;;;;;;5.53;2.80;;;;;;;24.19;100.00;148798.84;5094776;28;20468;-77
2022/06/16 07:30:53;;;;;;;6.80;2.80;;;;;;;25.08;100.00;149019.84;5092528;28;20016;-80
2022/06/16 07:33:20;;;;;;;4.85;2.50;;;;;;;24.11;100.00;148777.00;5093924;28;20032;-80
2022/06/16 07:35:45;;;;;;;4.60;2.50;;;;;;;24.90;100.00;148974.84;5091103;28;20034;-75
2022/06/16 07:38:12;;;;;;;4.65;2.47;;;;;;;24.13;100.00;148782.09;5089225;28;20012;-75
2022/06/16 07:40:38;;;;;;;5.90;2.88;;;;;;;24.87;100.00;148967.16;5090049;28;20090;-75
2022/06/16 07:43:05;;;;;;;6.40;3.10;;;;;;;24.41;100.00;148851.47;5088399;28;20379;-76
2022/06/16 07:45:31;;;;;;;6.15;3.08;;;;;;;23.62;100.00;148656.25;5089341;28;20114;-75
2022/06/16 07:48:00;;;;;;;6.50;2.75;;;;;;;24.16;100.00;148789.81;5106814;28;20118;-76
2022/06/16 07:50:26;;;;;;;4.65;2.70;;;;;;;24.10;100.00;148775.72;5110104;28;20463;-76
2022/06/16 07:52:51;;;;;;;4.65;2.70;;;;;;;23.75;100.00;148687.06;5099140;28;20039;-76
2022/06/16 07:55:18;;;;;;;7.13;2.80;;;;;;;24.57;100.00;148891.34;5089079;28;20388;-76
2022/06/16 07:57:50;;;;;;;5.25;2.40;;;;;;;23.11;100.00;148527.88;5088865;28;20020;-76
2022/06/16 08:00:20;;;;;;;4.35;2.67;;;;;;;24.24;100.00;148810.41;5089597;28;20436;-76
2022/06/16 08:02:45;;;;;;;4.65;2.58;;;;;;;24.48;100.00;148870.75;5088692;28;20097;-75
2022/06/16 08:05:12;;;;;;;4.72;2.55;;;;;;;24.42;100.00;148854.06;5088719;28;20020;-75
2022/06/16 08:07:38;;;;;;;3.97;2.30;;;;;;;25.60;100.00;149149.69;5089147;28;20028;-74
2022/06/16 08:10:08;;;;;;;4.13;2.00;;;;;;;25.16;100.00;149040.41;5088832;28;20100;-76
2022/06/16 08:12:34;;;;;;;5.47;2.65;;;;;;;25.47;100.00;149117.56;5088780;28;20055;-77
2022/06/16 08:15:00;;;;;;;4.50;2.80;;;;;;;24.44;100.00;148859.19;5089420;28;20137;-76
2022/06/16 08:17:30;;;;;;;5.40;2.63;;;;;;;24.31;100.00;148827.09;5088989;28;20027;-76
2022/06/16 08:19:56;;;;;;;5.53;3.40;;;;;;;24.77;100.00;148942.75;5088675;28;20487;-75
2022/06/16 08:22:21;;;;;;;5.18;2.85;;;;;;;24.90;100.00;148974.84;5089344;28;20020;-76
2022/06/16 08:24:47;;;;;;;5.82;3.10;;;;;;;24.15;100.00;148787.28;5088455;28;20039;-76
2022/06/16 08:27:14;;;;;;;5.97;3.38;;;;;;;23.70;100.00;148674.25;5088971;28;20046;-76
2022/06/16 08:29:43;;;;;;;5.05;3.17;;;;;;;23.90;100.00;148724.38;5089015;28;20016;-75
2022/06/16 08:32:10;;;;;;;5.07;2.90;;;;;;;24.92;100.00;148980.00;5088597;28;20416;-76
2022/06/16 08:34:36;;;;;;;5.63;3.00;;;;;;;25.98;100.00;149244.91;5087673;28;20024;-74
2022/06/16 08:37:01;;;;;;;5.00;3.03;;;;;;;26.70;100.00;149425.00;5072315;28;20024;-75
2022/06/16 08:39:27;;;;;;;7.47;2.85;;;;;;;25.92;100.00;149229.44;5090189;28;20081;-77
2022/06/16 08:42:25;;;;;;;5.57;2.83;;;;;;;25.96;100.00;149241.00;5092912;28;20044;-76
2022/06/16 08:45:14;;;;;;;4.57;2.70;;;;;;;26.51;100.00;149377.38;5091559;28;20043;-75
2022/06/16 08:47:52;;;;;;;4.65;2.60;;;;;;;27.05;100.00;149513.75;5092619;28;20385;-76
2022/06/16 08:50:33;;;;;;;6.68;3.13;;;;;;;26.09;100.00;149271.91;5093925;28;20115;-75
2022/06/16 08:53:37;;;;;;;6.18;2.70;;;;;;;25.59;100.00;149147.13;5091846;28;20073;-75
2022/06/16 08:56:08;;;;;;;4.30;2.83;;;;;;;25.96;100.00;149239.69;5095900;28;20052;-76
2022/06/16 08:58:55;;;;;;;6.13;3.20;;;;;;;25.21;100.00;149051.97;5094455;28;20457;-77
2022/06/16 09:01:31;;;;;;;5.07;3.00;;;;;;;25.61;100.00;149152.28;5096078;28;20020;-76
2022/06/16 09:04:11;;;;;;;6.13;3.42;;;;;;;24.80;100.00;148949.19;5089026;28;20423;-76
2022/06/16 09:06:42;;;;;;;5.45;2.80;;;;;;;26.62;100.00;149404.38;5095428;28;20020;-75
2022/06/16 09:13:02;;;;;;;7.75;3.40;;;;;;;25.75;100.00;149188.25;5099886;28;20034;-78
2022/06/16 09:16:05;;;;;;;5.50;3.17;;;;;;;26.20;100.00;149298.91;5093996;28;20040;-74
2022/06/16 09:19:04;;;;;;;7.97;2.90;;;;;;;27.16;100.00;149540.78;5096317;28;20034;-74
2022/06/16 09:21:45;;;;;;;6.40;3.38;;;;;;;25.68;100.00;149168.97;5097963;28;20488;-75
2022/06/16 09:24:16;;;;;;;4.65;2.85;;;;;;;25.98;100.00;149244.91;5096216;28;20059;-78
2022/06/16 09:27:00;;;;;;;5.45;2.95;;;;;;;27.11;100.00;149526.63;5095801;28;20035;-78
2022/06/16 09:29:36;;;;;;;6.78;3.25;;;;;;;26.93;100.00;149481.63;5095237;28;20028;-79
2022/06/16 09:32:23;;;;;;;5.07;3.58;;;;;;;26.36;100.00;149338.78;5107924;28;20471;-75
2022/06/16 09:35:05;;;;;;;4.10;3.10;;;;;;;25.00;100.00;149000.59;5113376;28;20027;-78
2022/06/16 09:37:41;;;;;;;5.22;3.03;;;;;;;25.61;100.00;149153.56;5111726;28;20741;-76
2022/06/16 09:40:20;;;;;;;5.95;2.92;;;;;;;26.24;100.00;149309.19;5096136;28;20020;-77
2022/06/16 09:42:59;;;;;;;5.13;2.60;;;;;;;26.31;100.00;149328.47;5094729;28;20462;-78
2022/06/16 09:45:31;;;;;;;4.90;2.85;;;;;;;25.94;100.00;149235.81;5096447;28;20094;-74
2022/06/16 09:47:59;;;;;;;4.88;2.95;;;;;;;26.04;100.00;149260.34;5093756;28;20028;-77
2022/06/16 09:50:43;;;;;;;5.43;3.05;;;;;;;26.02;100.00;149255.16;5092188;28;20054;-78
2022/06/16 09:53:16;;;;;;;5.90;2.95;;;;;;;25.77;100.00;149193.41;5092111;28;20028;-75
2022/06/16 09:56:11;;;;;;;4.35;2.85;;;;;;;25.60;100.00;149150.97;5092221;28;20028;-77
2022/06/16 09:58:55;;;;;;;9.35;3.35;;;;;;;24.09;100.00;148773.13;5093616;28;20020;-78
2022/06/16 10:01:27;;;;;;;5.00;2.90;;;;;;;24.61;100.00;148901.63;5094703;28;20035;-75
2022/06/16 10:04:03;;;;;;;6.57;3.13;;;;;;;24.54;100.00;148884.88;5091972;28;20457;-75
2022/06/16 10:06:57;;;;;;;4.68;2.80;;;;;;;24.25;100.00;148812.94;5103062;28;20031;-78
2022/06/16 10:09:31;;;;;;;5.93;2.70;;;;;;;24.53;100.00;148882.31;5102680;28;20119;-75
2022/06/16 10:11:57;;;;;;;7.22;3.00;;;;;;;24.30;100.00;148824.50;5094041;28;20077;-77
2022/06/16 10:14:47;;;;;;;7.05;2.67;;;;;;;23.64;100.00;148661.38;5113256;28;20043;-77
2022/06/16 10:17:16;;;;;;;6.43;2.88;;;;;;;24.23;100.00;148807.81;5100160;28;20089;-77
2022/06/16 10:19:44;;;;;;;6.38;3.65;;;;;;;23.62;100.00;148656.25;5091771;28;20023;-76
2022/06/16 10:22:31;;;;;;;7.00;3.28;;;;;;;24.24;100.00;148810.41;5075512;28;20069;-79
2022/06/16 10:25:15;;;;;;;4.88;3.45;;;;;;;23.86;100.00;148715.34;5091002;28;20036;-74
2022/06/16 10:27:45;;;;;;;5.57;3.38;;;;;;;24.35;100.00;148838.63;5091529;28;20059;-74
2022/06/16 10:30:24;;;;;;;9.77;3.28;;;;;;;24.05;100.00;148761.56;5091573;28;20059;-78
2022/06/16 10:33:09;;;;;;;6.10;2.90;;;;;;;24.26;100.00;148814.25;5092363;28;20123;-75
2022/06/16 10:35:35;;;;;;;7.72;2.58;;;;;;;24.40;100.00;148848.94;5093214;28;20028;-75
2022/06/16 10:38:01;;;;;;;5.65;2.70;;;;;;;25.06;100.00;149016.00;5106626;28;20076;-76
2022/06/16 10:40:36;;;;;;;7.65;2.80;;;;;;;24.88;100.00;148969.75;5111202;28;20024;-76
2022/06/16 10:43:10;;;;;;;8.02;3.35;;;;;;;24.58;100.00;148893.91;5111609;28;20379;-76
2022/06/16 10:45:38;;;;;;;6.72;3.35;;;;;;;24.46;100.00;148864.34;5110671;28;20015;-75
2022/06/16 10:48:03;;;;;;;4.80;2.83;;;;;;;24.55;100.00;148887.47;5111391;28;20384;-78
2022/06/16 10:50:34;;;;;;;5.47;3.30;;;;;;;24.58;100.00;148893.91;5111859;28;20024;-78
2022/06/16 10:53:32;;;;;;;4.13;2.42;;;;;;;24.65;100.00;148913.19;5111989;28;20054;-75
2022/06/16 10:56:07;;;;;;;6.70;3.00;;;;;;;24.81;100.00;148953.06;5111644;28;20055;-74
2022/06/16 10:58:47;;;;;;;6.55;2.70;;;;;;;25.03;100.00;149006.97;5111013;28;20046;-74
2022/06/16 11:01:25;;;;;;;6.10;3.00;;;;;;;25.24;100.00;149059.69;5111310;28;20027;-76
2022/06/16 11:04:01;;;;;;;7.28;3.15;;;;;;;25.20;100.00;149050.69;5110688;28;20016;-76
2022/06/16 11:06:28;;;;;;;7.10;3.30;;;;;;;24.60;100.00;148900.34;5111279;28;20016;-75
2022/06/16 11:09:03;;;;;;;6.13;3.13;;;;;;;24.81;100.00;148951.72;5111129;28;20028;-76
2022/06/16 11:11:40;;;;;;;6.40;3.08;;;;;;;24.35;100.00;148837.38;5113120;28;20539;-79
2022/06/16 11:14:12;;;;;;;4.85;3.20;;;;;;;24.54;100.00;148884.88;5111490;28;20031;-77
2022/06/16 11:16:47;;;;;;;6.18;3.33;;;;;;;24.72;100.00;148931.19;5110907;28;20030;-78
2022/06/16 11:19:24;;;;;;;5.63;3.15;;;;;;;24.80;100.00;148950.47;5111057;28;20016;-80
2022/06/16 11:21:51;;;;;;;7.47;3.15;;;;;;;24.78;100.00;148944.03;5110761;28;20030;-79
2022/06/16 11:24:31;;;;;;;5.30;3.00;;;;;;;24.90;100.00;148976.13;5111164;28;20154;-78
2022/06/16 11:27:10;;;;;;;5.60;3.33;;;;;;;25.05;100.00;149013.41;5111347;28;20023;-78
2022/06/16 11:29:36;;;;;;;7.47;3.17;;;;;;;25.08;100.00;149021.13;5110881;28;20051;-77
2022/06/16 11:32:24;;;;;;;5.55;3.40;;;;;;;24.42;100.00;148854.06;5111274;28;20034;-75
2022/06/16 11:34:50;;;;;;;8.85;3.30;;;;;;;24.97;100.00;148992.88;5110302;28;20077;-78
2022/06/16 11:37:39;;;;;;;5.97;2.78;;;;;;;25.62;100.00;149154.81;5111006;28;20023;-79
2022/06/16 11:40:23;;;;;;;6.53;3.28;;;;;;;24.78;100.00;148945.34;5103632;28;20031;-76
2022/06/16 11:43:08;;;;;;;5.80;3.67;;;;;;;24.65;100.00;148913.19;5092300;28;20131;-77
2022/06/16 11:45:44;;;;;;;8.45;3.13;;;;;;;24.99;100.00;148996.72;5092017;28;20039;-79
2022/06/16 11:48:32;;;;;;;6.40;3.70;;;;;;;24.69;100.00;148923.47;5110044;28;20047;-76
2022/06/16 11:51:15;;;;;;;8.90;3.53;;;;;;;24.49;100.00;148873.31;5099210;28;20050;-79
2022/06/16 11:54:09;;;;;;;7.20;3.20;;;;;;;24.29;100.00;148821.97;5073296;28;20024;-78
2022/06/16 11:56:48;;;;;;;7.22;3.10;;;;;;;24.07;100.00;148768.00;5088565;28;20039;-79
2022/06/16 11:59:45;;;;;;;9.10;2.97;;;;;;;24.76;100.00;148940.16;5097353;28;20024;-77
2022/06/16 12:02:30;;;;;;;6.32;3.05;;;;;;;24.54;100.00;148886.16;5092118;28;20020;-76
2022/06/16 12:05:26;;;;;;;5.82;3.42;;;;;;;24.35;100.00;148837.38;5093170;28;20073;-81